sensor_id;sensor_type;location;lat;lon;timestamp;pressure;altitude;pressure_sealevel;temperature;humidity
44675;BME280;30388;52.038;-1.478;2023-02-18T00:01:36;65661.70;;;9.29;100.00
44675;BME280;30388;52.038;-1.478;2023-02-18T00:04:04;65745.88;;;10.13;100.00
44675;BME280;30388;52.038;-1.478;2023-02-18T00:06:34;65642.54;;;9.27;100.00
44675;BME280;30388;52.038;-1.478;2023-02-18T00:09:03;65683.94;;;9.34;100.00
44675;BME280;30388;52.038;-1.478;2023-02-18T00:11:33;65750.71;;;10.19;100.00
44675;BME280;30388;52.038;-1.478;2023-02-18T00:14:03;65720.57;;;9.81;100.00
44675;BME280;30388;52.038;-1.478;2023-02-18T00:16:31;65759.31;;;10.30;100.00
44675;BME280;30388;52.038;-1.478;2023-02-18T00:19:00;65763.72;;;10.36;100.00
44675;BME280;30388;52.038;-1.478;2023-02-18T00:21:28;65719.42;;;10.02;100.00
44675;BME280;30388;52.038;-1.478;2023-02-18T00:23:56;65739.63;;;10.50;100.00
44675;BME280;30388;52.038;-1.478;2023-02-18T00:26:24;65702.38;;;10.02;100.00
44675;BME280;30388;52.038;-1.478;2023-02-18T00:28:52;65689.83;;;9.87;100.00
44675;BME280;30388;52.038;-1.478;2023-02-18T00:31:22;65755.07;;;10.47;100.00
44675;BME280;30388;52.038;-1.478;2023-02-18T00:33:49;65715.27;;;9.97;100.00
44675;BME280;30388;52.038;-1.478;2023-02-18T00:36:19;65670.72;;;9.63;100.00
44675;BME280;30388;52.038;-1.478;2023-02-18T00:38:47;65638.26;;;9.21;100.00
44675;BME280;30388;52.038;-1.478;2023-02-18T00:41:16;65726.17;;;10.33;100.00
44675;BME280;30388;52.038;-1.478;2023-02-18T00:43:44;65684.10;;;9.80;100.00
44675;BME280;30388;52.038;-1.478;2023-02-18T00:46:11;65704.52;;;9.82;100.00
44675;BME280;30388;52.038;-1.478;2023-02-18T00:48:38;65688.71;;;9.85;100.00
44675;BME280;30388;52.038;-1.478;2023-02-18T00:51:06;65748.48;;;10.16;100.00
44675;BME280;30388;52.038;-1.478;2023-02-18T00:53:34;65652.19;;;9.39;100.00
44675;BME280;30388;52.038;-1.478;2023-02-18T00:56:02;65650.99;;;9.38;100.00
44675;BME280;30388;52.038;-1.478;2023-02-18T00:58:30;65637.68;;;9.20;100.00
44675;BME280;30388;52.038;-1.478;2023-02-18T01:00:58;65645.61;;;9.30;100.00
44675;BME280;30388;52.038;-1.478;2023-02-18T01:03:26;65694.54;;;9.93;100.00
44675;BME280;30388;52.038;-1.478;2023-02-18T01:05:53;65670.12;;;9.62;100.00
44675;BME280;30388;52.038;-1.478;2023-02-18T01:08:21;65640.24;;;9.25;100.00
44675;BME280;30388;52.038;-1.478;2023-02-18T01:10:52;65688.92;;;9.64;100.00
44675;BME280;30388;52.038;-1.478;2023-02-18T01:13:20;65614.90;;;8.92;100.00
44675;BME280;30388;52.038;-1.478;2023-02-18T01:15:47;65599.42;;;8.99;100.00
44675;BME280;30388;52.038;-1.478;2023-02-18T01:18:15;65613.01;;;9.39;100.00
44675;BME280;30388;52.038;-1.478;2023-02-18T01:20:44;65596.76;;;8.69;100.00
44675;BME280;30388;52.038;-1.478;2023-02-18T01:23:13;65618.61;;;9.23;100.00
44675;BME280;30388;52.038;-1.478;2023-02-18T01:25:42;65617.05;;;8.96;100.00
44675;BME280;30388;52.038;-1.478;2023-02-18T01:28:11;65644.67;;;9.30;100.00
44675;BME280;30388;52.038;-1.478;2023-02-18T01:30:41;65639.57;;;9.23;100.00
44675;BME280;30388;52.038;-1.478;2023-02-18T01:33:09;65591.06;;;8.62;100.00
44675;BME280;30388;52.038;-1.478;2023-02-18T01:35:37;65617.85;;;8.95;100.00
44675;BME280;30388;52.038;-1.478;2023-02-18T01:38:05;65590.49;;;8.61;100.00
44675;BME280;30388;52.038;-1.478;2023-02-18T01:40:32;65594.44;;;8.93;100.00
44675;BME280;30388;52.038;-1.478;2023-02-18T01:42:59;65669.57;;;9.61;100.00
44675;BME280;30388;52.038;-1.478;2023-02-18T01:45:44;65660.42;;;9.49;100.00
44675;BME280;30388;52.038;-1.478;2023-02-18T01:48:20;65627.32;;;9.08;100.00
44675;BME280;30388;52.038;-1.478;2023-02-18T01:50:52;65603.06;;;9.04;100.00
44675;BME280;30388;52.038;-1.478;2023-02-18T01:53:25;65580.22;;;8.97;100.00
44675;BME280;30388;52.038;-1.478;2023-02-18T01:55:53;65660.64;;;9.50;100.00
44675;BME280;30388;52.038;-1.478;2023-02-18T01:58:21;65604.98;;;8.80;100.00
44675;BME280;30388;52.038;-1.478;2023-02-18T02:00:49;65601.46;;;8.74;100.00
44675;BME280;30388;52.038;-1.478;2023-02-18T02:03:15;65596.00;;;9.17;100.00
44675;BME280;30388;52.038;-1.478;2023-02-18T02:05:43;65550.14;;;8.59;100.00
44675;BME280;30388;52.038;-1.478;2023-02-18T02:08:10;65630.30;;;9.38;100.00
44675;BME280;30388;52.038;-1.478;2023-02-18T02:10:50;65612.67;;;8.89;100.00
44675;BME280;30388;52.038;-1.478;2023-02-18T02:13:33;65584.09;;;9.02;100.00
44675;BME280;30388;52.038;-1.478;2023-02-18T02:16:15;65632.39;;;9.14;100.00
44675;BME280;30388;52.038;-1.478;2023-02-18T02:18:57;65528.05;;;8.30;100.00
44675;BME280;30388;52.038;-1.478;2023-02-18T02:24:39;65532.54;;;8.86;100.00
44675;BME280;30388;52.038;-1.478;2023-02-18T02:27:20;65548.06;;;8.35;100.00
44675;BME280;30388;52.038;-1.478;2023-02-18T02:30:35;65581.93;;;8.99;100.00
44675;BME280;30388;52.038;-1.478;2023-02-18T02:33:26;65562.63;;;8.52;100.00
44675;BME280;30388;52.038;-1.478;2023-02-18T02:36:02;65570.60;;;8.35;100.00
44675;BME280;30388;52.038;-1.478;2023-02-18T02:38:43;65554.95;;;8.43;100.00
44675;BME280;30388;52.038;-1.478;2023-02-18T02:41:26;65551.16;;;8.59;100.00
44675;BME280;30388;52.038;-1.478;2023-02-18T02:44:12;65604.03;;;8.78;100.00
44675;BME280;30388;52.038;-1.478;2023-02-18T02:46:44;65516.92;;;8.16;100.00
44675;BME280;30388;52.038;-1.478;2023-02-18T02:49:21;65562.78;;;8.52;100.00
44675;BME280;30388;52.038;-1.478;2023-02-18T02:51:55;65557.15;;;8.45;100.00
44675;BME280;30388;52.038;-1.478;2023-02-18T02:54:26;65577.89;;;8.71;100.00
44675;BME280;30388;52.038;-1.478;2023-02-18T02:57:07;65540.51;;;8.47;100.00
44675;BME280;30388;52.038;-1.478;2023-02-18T02:59:37;65533.94;;;8.39;100.00
44675;BME280;30388;52.038;-1.478;2023-02-18T03:02:20;65543.91;;;8.28;100.00
44675;BME280;30388;52.038;-1.478;2023-02-18T03:04:59;65567.78;;;8.32;100.00
44675;BME280;30388;52.038;-1.478;2023-02-18T03:07:48;65577.65;;;8.71;100.00
44675;BME280;30388;52.038;-1.478;2023-02-18T03:10:35;65548.03;;;8.33;100.00
44675;BME280;30388;52.038;-1.478;2023-02-18T03:13:12;65499.80;;;7.94;100.00
44675;BME280;30388;52.038;-1.478;2023-02-18T03:15:52;65471.58;;;7.81;100.00
44675;BME280;30388;52.038;-1.478;2023-02-18T03:18:29;65494.87;;;8.11;100.00
44675;BME280;30388;52.038;-1.478;2023-02-18T03:21:04;65477.47;;;7.17;100.00
44675;BME280;30388;52.038;-1.478;2023-02-18T03:23:37;65515.10;;;8.14;100.00
44675;BME280;30388;52.038;-1.478;2023-02-18T03:26:07;65532.54;;;8.36;100.00
44675;BME280;30388;52.038;-1.478;2023-02-18T03:28:37;65530.15;;;8.11;100.00
44675;BME280;30388;52.038;-1.478;2023-02-18T03:31:09;65471.49;;;7.81;100.00
44675;BME280;30388;52.038;-1.478;2023-02-18T03:33:41;65450.74;;;7.33;100.00
44675;BME280;30388;52.038;-1.478;2023-02-18T03:36:11;65470.04;;;7.80;100.00
44675;BME280;30388;52.038;-1.478;2023-02-18T03:38:44;65488.56;;;8.03;100.00
44675;BME280;30388;52.038;-1.478;2023-02-18T03:41:15;65481.64;;;7.95;100.00
44675;BME280;30388;52.038;-1.478;2023-02-18T03:43:48;65519.49;;;8.19;100.00
44675;BME280;30388;52.038;-1.478;2023-02-18T03:46:16;65414.47;;;7.36;100.00
44675;BME280;30388;52.038;-1.478;2023-02-18T03:48:43;65463.32;;;7.49;100.00
44675;BME280;30388;52.038;-1.478;2023-02-18T03:51:11;65474.13;;;7.61;100.00
44675;BME280;30388;52.038;-1.478;2023-02-18T03:53:38;65509.94;;;8.08;100.00
44675;BME280;30388;52.038;-1.478;2023-02-18T03:56:05;65426.93;;;7.25;100.00
44675;BME280;30388;52.038;-1.478;2023-02-18T03:58:32;65490.25;;;8.05;100.00
44675;BME280;30388;52.038;-1.478;2023-02-18T04:01:00;65495.93;;;8.12;100.00
44675;BME280;30388;52.038;-1.478;2023-02-18T04:03:28;65485.95;;;7.78;100.00
44675;BME280;30388;52.038;-1.478;2023-02-18T04:05:55;65515.96;;;8.15;100.00
44675;BME280;30388;52.038;-1.478;2023-02-18T04:08:23;65482.99;;;7.95;100.00
44675;BME280;30388;52.038;-1.478;2023-02-18T04:10:50;65466.68;;;7.75;100.00
44675;BME280;30388;52.038;-1.478;2023-02-18T04:13:18;65505.69;;;8.52;100.00
44675;BME280;30388;52.038;-1.478;2023-02-18T04:15:45;65513.21;;;8.12;100.00
44675;BME280;30388;52.038;-1.478;2023-02-18T04:18:12;65515.91;;;8.38;100.00
44675;BME280;30388;52.038;-1.478;2023-02-18T04:20:39;65514.39;;;8.14;100.00
44675;BME280;30388;52.038;-1.478;2023-02-18T04:23:07;65436.10;;;7.37;100.00
44675;BME280;30388;52.038;-1.478;2023-02-18T04:25:34;65460.09;;;7.93;100.00
44675;BME280;30388;52.038;-1.478;2023-02-18T04:28:01;65487.46;;;8.28;100.00
44675;BME280;30388;52.038;-1.478;2023-02-18T04:30:28;65506.84;;;8.27;100.00
44675;BME280;30388;52.038;-1.478;2023-02-18T04:32:55;65499.74;;;8.17;100.00
44675;BME280;30388;52.038;-1.478;2023-02-18T04:35:23;65465.64;;;7.74;100.00
44675;BME280;30388;52.038;-1.478;2023-02-18T04:37:50;65572.18;;;8.87;100.00
44675;BME280;30388;52.038;-1.478;2023-02-18T04:40:18;65526.48;;;8.29;100.00
44675;BME280;30388;52.038;-1.478;2023-02-18T04:42:45;65587.17;;;8.84;100.00
44675;BME280;30388;52.038;-1.478;2023-02-18T04:45:12;65536.85;;;8.42;100.00
44675;BME280;30388;52.038;-1.478;2023-02-18T04:47:40;65549.08;;;8.58;100.00
44675;BME280;30388;52.038;-1.478;2023-02-18T04:50:08;65546.67;;;8.77;100.00
44675;BME280;30388;52.038;-1.478;2023-02-18T04:52:35;65561.62;;;8.74;100.00
44675;BME280;30388;52.038;-1.478;2023-02-18T04:55:02;65558.83;;;8.48;100.00
44675;BME280;30388;52.038;-1.478;2023-02-18T04:57:29;65589.62;;;8.86;100.00
44675;BME280;30388;52.038;-1.478;2023-02-18T04:59:56;65589.06;;;8.59;100.00
44675;BME280;30388;52.038;-1.478;2023-02-18T05:02:24;65572.64;;;8.89;100.00
44675;BME280;30388;52.038;-1.478;2023-02-18T05:04:51;65585.76;;;8.82;100.00
44675;BME280;30388;52.038;-1.478;2023-02-18T05:07:18;65577.33;;;8.71;100.00
44675;BME280;30388;52.038;-1.478;2023-02-18T05:09:45;65521.78;;;8.46;100.00
44675;BME280;30388;52.038;-1.478;2023-02-18T05:12:12;65523.92;;;8.26;100.00
44675;BME280;30388;52.038;-1.478;2023-02-18T05:14:39;65608.60;;;9.34;100.00
44675;BME280;30388;52.038;-1.478;2023-02-18T05:17:07;65630.14;;;9.38;100.00
44675;BME280;30388;52.038;-1.478;2023-02-18T05:19:34;65670.23;;;9.41;100.00
44675;BME280;30388;52.038;-1.478;2023-02-18T05:22:01;65675.20;;;9.69;100.00
44675;BME280;30388;52.038;-1.478;2023-02-18T05:24:28;65638.87;;;9.22;100.00
44675;BME280;30388;52.038;-1.478;2023-02-18T05:26:55;65630.46;;;9.39;100.00
44675;BME280;30388;52.038;-1.478;2023-02-18T05:29:22;65617.88;;;8.96;100.00
44675;BME280;30388;52.038;-1.478;2023-02-18T05:31:50;65602.19;;;9.03;100.00
44675;BME280;30388;52.038;-1.478;2023-02-18T05:34:17;65598.86;;;8.72;100.00
44675;BME280;30388;52.038;-1.478;2023-02-18T05:36:44;65597.91;;;8.98;100.00
44675;BME280;30388;52.038;-1.478;2023-02-18T05:39:13;65657.16;;;9.23;100.00
44675;BME280;30388;52.038;-1.478;2023-02-18T05:41:40;65649.04;;;9.35;100.00
44675;BME280;30388;52.038;-1.478;2023-02-18T05:44:07;65659.27;;;9.26;100.00
44675;BME280;30388;52.038;-1.478;2023-02-18T05:46:34;65698.63;;;9.98;100.00
44675;BME280;30388;52.038;-1.478;2023-02-18T05:49:02;65661.71;;;9.52;100.00
44675;BME280;30388;52.038;-1.478;2023-02-18T05:51:29;65642.63;;;9.27;100.00
44675;BME280;30388;52.038;-1.478;2023-02-18T05:53:56;65700.24;;;9.77;100.00
44675;BME280;30388;52.038;-1.478;2023-02-18T05:56:23;65669.92;;;9.62;100.00
44675;BME280;30388;52.038;-1.478;2023-02-18T05:58:50;65662.49;;;9.52;100.00
44675;BME280;30388;52.038;-1.478;2023-02-18T06:01:17;65603.31;;;9.27;100.00
44675;BME280;30388;52.038;-1.478;2023-02-18T06:03:44;65649.92;;;9.37;100.00
44675;BME280;30388;52.038;-1.478;2023-02-18T06:06:13;65610.65;;;9.36;100.00
44675;BME280;30388;52.038;-1.478;2023-02-18T06:08:39;65622.37;;;9.02;100.00
44675;BME280;30388;52.038;-1.478;2023-02-18T06:11:07;65598.31;;;9.19;100.00
44675;BME280;30388;52.038;-1.478;2023-02-18T06:13:34;65622.80;;;9.29;100.00
44675;BME280;30388;52.038;-1.478;2023-02-18T06:16:03;65656.27;;;9.45;100.00
44675;BME280;30388;52.038;-1.478;2023-02-18T06:18:31;65612.58;;;9.38;100.00
44675;BME280;30388;52.038;-1.478;2023-02-18T06:20:58;65638.44;;;9.49;100.00
44675;BME280;30388;52.038;-1.478;2023-02-18T06:23:25;65624.64;;;9.04;100.00
44675;BME280;30388;52.038;-1.478;2023-02-18T06:25:53;65656.49;;;9.45;100.00
44675;BME280;30388;52.038;-1.478;2023-02-18T06:28:20;65691.98;;;9.90;100.00
44675;BME280;30388;52.038;-1.478;2023-02-18T06:30:48;65714.84;;;10.18;100.00
44675;BME280;30388;52.038;-1.478;2023-02-18T06:33:15;65643.42;;;9.29;100.00
44675;BME280;30388;52.038;-1.478;2023-02-18T06:35:53;65666.74;;;9.58;100.00
44675;BME280;30388;52.038;-1.478;2023-02-18T06:38:20;65642.40;;;9.27;100.00
44675;BME280;30388;52.038;-1.478;2023-02-18T06:40:47;65630.27;;;9.11;100.00
44675;BME280;30388;52.038;-1.478;2023-02-18T06:43:15;65564.01;;;8.99;100.00
44675;BME280;30388;52.038;-1.478;2023-02-18T06:45:42;65601.65;;;9.03;100.00
44675;BME280;30388;52.038;-1.478;2023-02-18T06:48:08;65593.28;;;9.14;100.00
44675;BME280;30388;52.038;-1.478;2023-02-18T06:50:36;65647.69;;;9.34;100.00
44675;BME280;30388;52.038;-1.478;2023-02-18T06:53:03;65654.51;;;9.43;100.00
44675;BME280;30388;52.038;-1.478;2023-02-18T06:55:30;65625.89;;;9.06;100.00
44675;BME280;30388;52.038;-1.478;2023-02-18T06:57:57;65623.30;;;9.02;100.00
44675;BME280;30388;52.038;-1.478;2023-02-18T07:00:24;65618.79;;;8.97;100.00
44675;BME280;30388;52.038;-1.478;2023-02-18T07:02:51;65558.76;;;8.70;100.00
44675;BME280;30388;52.038;-1.478;2023-02-18T07:05:18;65551.86;;;8.61;100.00
44675;BME280;30388;52.038;-1.478;2023-02-18T07:07:46;65585.01;;;8.81;100.00
44675;BME280;30388;52.038;-1.478;2023-02-18T07:10:13;65583.23;;;9.01;100.00
44675;BME280;30388;52.038;-1.478;2023-02-18T07:12:40;65529.30;;;8.33;100.00
44675;BME280;30388;52.038;-1.478;2023-02-18T07:15:08;65593.21;;;8.91;100.00
44675;BME280;30388;52.038;-1.478;2023-02-18T07:17:35;65570.85;;;8.63;100.00
44675;BME280;30388;52.038;-1.478;2023-02-18T07:20:03;65615.72;;;8.93;100.00
44675;BME280;30388;52.038;-1.478;2023-02-18T07:22:31;65653.41;;;9.41;100.00
44675;BME280;30388;52.038;-1.478;2023-02-18T07:24:58;65612.05;;;9.15;100.00
44675;BME280;30388;52.038;-1.478;2023-02-18T07:27:25;65599.55;;;8.99;100.00
44675;BME280;30388;52.038;-1.478;2023-02-18T07:29:53;65634.05;;;9.17;100.00
44675;BME280;30388;52.038;-1.478;2023-02-18T07:32:20;65663.59;;;9.54;100.00
44675;BME280;30388;52.038;-1.478;2023-02-18T07:34:50;65668.92;;;9.61;100.00
44675;BME280;30388;52.038;-1.478;2023-02-18T07:37:18;65664.45;;;9.56;100.00
44675;BME280;30388;52.038;-1.478;2023-02-18T07:39:45;65694.65;;;9.71;100.00
44675;BME280;30388;52.038;-1.478;2023-02-18T07:42:13;65663.98;;;9.54;100.00
44675;BME280;30388;52.038;-1.478;2023-02-18T07:44:40;65699.24;;;9.99;100.00
44675;BME280;30388;52.038;-1.478;2023-02-18T07:47:11;65675.78;;;9.70;100.00
44675;BME280;30388;52.038;-1.478;2023-02-18T07:49:39;65653.99;;;8.97;100.00
44675;BME280;30388;52.038;-1.478;2023-02-18T07:52:06;65740.02;;;10.07;100.00
44675;BME280;30388;52.038;-1.478;2023-02-18T07:54:33;65745.74;;;10.13;100.00
44675;BME280;30388;52.038;-1.478;2023-02-18T07:57:00;65737.50;;;10.03;100.00
44675;BME280;30388;52.038;-1.478;2023-02-18T07:59:28;65670.38;;;9.40;100.00
44675;BME280;30388;52.038;-1.478;2023-02-18T08:01:55;65647.40;;;9.34;100.00
44675;BME280;30388;52.038;-1.478;2023-02-18T08:04:22;65668.57;;;9.61;100.00
44675;BME280;30388;52.038;-1.478;2023-02-18T08:06:49;65653.70;;;9.20;100.00
44675;BME280;30388;52.038;-1.478;2023-02-18T08:09:17;65643.21;;;9.55;100.00
44675;BME280;30388;52.038;-1.478;2023-02-18T08:11:44;65677.16;;;9.71;100.00
44675;BME280;30388;52.038;-1.478;2023-02-18T08:14:11;65710.55;;;9.91;100.00
44675;BME280;30388;52.038;-1.478;2023-02-18T08:16:39;65646.79;;;9.32;100.00
44675;BME280;30388;52.038;-1.478;2023-02-18T08:19:06;65668.04;;;9.59;100.00
44675;BME280;30388;52.038;-1.478;2023-02-18T08:21:33;65675.07;;;9.69;100.00
44675;BME280;30388;52.038;-1.478;2023-02-18T08:24:01;65699.48;;;10.00;100.00
44675;BME280;30388;52.038;-1.478;2023-02-18T08:26:28;65719.94;;;9.80;100.00
44675;BME280;30388;52.038;-1.478;2023-02-18T08:28:55;65752.09;;;10.66;100.00
44675;BME280;30388;52.038;-1.478;2023-02-18T08:31:25;65667.93;;;9.60;100.00
44675;BME280;30388;52.038;-1.478;2023-02-18T08:33:53;65670.09;;;9.62;100.00
44675;BME280;30388;52.038;-1.478;2023-02-18T08:36:22;65708.07;;;9.88;100.00
44675;BME280;30388;52.038;-1.478;2023-02-18T08:38:50;65685.71;;;9.83;100.00
44675;BME280;30388;52.038;-1.478;2023-02-18T08:41:17;65728.87;;;9.93;100.00
44675;BME280;30388;52.038;-1.478;2023-02-18T08:43:44;65742.53;;;10.09;100.00
44675;BME280;30388;52.038;-1.478;2023-02-18T08:46:12;65710.52;;;9.91;100.00
44675;BME280;30388;52.038;-1.478;2023-02-18T08:48:39;65736.46;;;10.23;100.00
44675;BME280;30388;52.038;-1.478;2023-02-18T08:51:13;65748.46;;;9.68;100.00
44675;BME280;30388;52.038;-1.478;2023-02-18T08:53:41;65778.91;;;10.78;100.00
44675;BME280;30388;52.038;-1.478;2023-02-18T08:56:09;65748.81;;;10.40;100.00
44675;BME280;30388;52.038;-1.478;2023-02-18T08:58:36;65709.56;;;9.68;100.00
44675;BME280;30388;52.038;-1.478;2023-02-18T09:01:05;65737.54;;;10.04;100.00
44675;BME280;30388;52.038;-1.478;2023-02-18T09:03:34;65769.61;;;10.66;100.00
44675;BME280;30388;52.038;-1.478;2023-02-18T09:06:03;65688.94;;;9.86;100.00
44675;BME280;30388;52.038;-1.478;2023-02-18T09:08:30;65750.20;;;10.63;100.00
44675;BME280;30388;52.038;-1.478;2023-02-18T09:10:58;65681.81;;;9.76;100.00
44675;BME280;30388;52.038;-1.478;2023-02-18T09:13:27;65707.87;;;9.66;100.00
44675;BME280;30388;52.038;-1.478;2023-02-18T09:15:56;65699.21;;;9.99;100.00
44675;BME280;30388;52.038;-1.478;2023-02-18T09:18:24;65707.45;;;10.09;100.00
44675;BME280;30388;52.038;-1.478;2023-02-18T09:20:55;65783.38;;;10.60;100.00
44675;BME280;30388;52.038;-1.478;2023-02-18T09:23:22;65777.35;;;10.53;100.00
44675;BME280;30388;52.038;-1.478;2023-02-18T09:25:51;65814.84;;;11.00;100.00
44675;BME280;30388;52.038;-1.478;2023-02-18T09:28:19;65776.73;;;10.52;100.00
44675;BME280;30388;52.038;-1.478;2023-02-18T09:30:46;65781.22;;;10.58;100.00
44675;BME280;30388;52.038;-1.478;2023-02-18T09:33:14;65819.27;;;11.06;100.00
44675;BME280;30388;52.038;-1.478;2023-02-18T09:35:47;65781.03;;;10.32;100.00
44675;BME280;30388;52.038;-1.478;2023-02-18T09:38:16;65795.48;;;10.75;100.00
44675;BME280;30388;52.038;-1.478;2023-02-18T09:40:46;65808.11;;;10.65;100.00
44675;BME280;30388;52.038;-1.478;2023-02-18T09:43:23;65860.82;;;11.31;100.00
44675;BME280;30388;52.038;-1.478;2023-02-18T09:45:54;65844.43;;;11.11;100.00
44675;BME280;30388;52.038;-1.478;2023-02-18T09:48:26;65788.01;;;10.40;100.00
44675;BME280;30388;52.038;-1.478;2023-02-18T09:50:54;65791.85;;;10.71;100.00
44675;BME280;30388;52.038;-1.478;2023-02-18T09:53:22;65824.18;;;11.12;100.00
44675;BME280;30388;52.038;-1.478;2023-02-18T09:55:53;65896.82;;;11.55;100.00
44675;BME280;30388;52.038;-1.478;2023-02-18T09:58:24;65821.06;;;10.82;100.00
44675;BME280;30388;52.038;-1.478;2023-02-18T10:00:57;65842.61;;;11.35;100.00
44675;BME280;30388;52.038;-1.478;2023-02-18T10:03:30;65815.63;;;11.01;100.00
44675;BME280;30388;52.038;-1.478;2023-02-18T10:06:01;65913.15;;;11.99;100.00
44675;BME280;30388;52.038;-1.478;2023-02-18T10:08:32;65836.84;;;10.79;100.00
44675;BME280;30388;52.038;-1.478;2023-02-18T10:11:03;65874.90;;;11.28;100.00
44675;BME280;30388;52.038;-1.478;2023-02-18T10:13:33;65879.58;;;11.56;100.00
44675;BME280;30388;52.038;-1.478;2023-02-18T10:16:01;65913.51;;;11.50;100.00
44675;BME280;30388;52.038;-1.478;2023-02-18T10:18:31;65875.16;;;11.77;100.00
44675;BME280;30388;52.038;-1.478;2023-02-18T10:21:05;65948.45;;;11.93;100.00
44675;BME280;30388;52.038;-1.478;2023-02-18T10:23:38;65881.20;;;11.58;100.00
44675;BME280;30388;52.038;-1.478;2023-02-18T10:26:11;65911.15;;;11.73;100.00
44675;BME280;30388;52.038;-1.478;2023-02-18T10:28:43;65961.16;;;11.88;100.00
44675;BME280;30388;52.038;-1.478;2023-02-18T10:31:16;65944.51;;;12.16;100.00
44675;BME280;30388;52.038;-1.478;2023-02-18T10:33:52;65993.73;;;12.51;100.00
44675;BME280;30388;52.038;-1.478;2023-02-18T10:36:33;65990.26;;;12.47;100.00
44675;BME280;30388;52.038;-1.478;2023-02-18T10:39:20;65957.66;;;12.05;100.00
44675;BME280;30388;52.038;-1.478;2023-02-18T10:42:03;65954.50;;;11.79;100.00
44675;BME280;30388;52.038;-1.478;2023-02-18T10:44:43;66004.40;;;12.64;100.00
44675;BME280;30388;52.038;-1.478;2023-02-18T10:47:25;65965.82;;;12.15;100.00
44675;BME280;30388;52.038;-1.478;2023-02-18T10:50:04;66016.46;;;12.79;100.00
44675;BME280;30388;52.038;-1.478;2023-02-18T10:52:42;66014.71;;;12.55;100.00
44675;BME280;30388;52.038;-1.478;2023-02-18T10:55:11;66035.16;;;12.59;100.00
44675;BME280;30388;52.038;-1.478;2023-02-18T10:57:45;66083.09;;;13.41;100.00
44675;BME280;30388;52.038;-1.478;2023-02-18T11:00:17;66067.05;;;12.72;100.00
44675;BME280;30388;52.038;-1.478;2023-02-18T11:03:01;66070.58;;;13.03;100.00
44675;BME280;30388;52.038;-1.478;2023-02-18T11:05:34;66073.96;;;12.81;100.00
44675;BME280;30388;52.038;-1.478;2023-02-18T11:08:08;66121.64;;;13.41;100.00
44675;BME280;30388;52.038;-1.478;2023-02-18T11:10:39;66118.86;;;13.37;100.00
44675;BME280;30388;52.038;-1.478;2023-02-18T11:13:09;66156.53;;;13.85;100.00
44675;BME280;30388;52.038;-1.478;2023-02-18T11:15:38;66073.59;;;13.28;100.00
44675;BME280;30388;52.038;-1.478;2023-02-18T11:18:29;66076.80;;;13.33;100.00
44675;BME280;30388;52.038;-1.478;2023-02-18T11:21:01;66052.18;;;13.01;100.00
44675;BME280;30388;52.038;-1.478;2023-02-18T11:23:31;66099.44;;;13.62;100.00
44675;BME280;30388;52.038;-1.478;2023-02-18T11:26:00;66066.99;;;13.21;100.00
44675;BME280;30388;52.038;-1.478;2023-02-18T11:28:43;66071.52;;;13.27;100.00
44675;BME280;30388;52.038;-1.478;2023-02-18T11:31:21;66074.13;;;13.29;100.00
44675;BME280;30388;52.038;-1.478;2023-02-18T11:33:51;65976.50;;;12.07;100.00
44675;BME280;30388;52.038;-1.478;2023-02-18T11:36:24;66054.04;;;13.04;100.00
44675;BME280;30388;52.038;-1.478;2023-02-18T11:38:55;66004.17;;;12.63;100.00
44675;BME280;30388;52.038;-1.478;2023-02-18T11:41:32;66058.30;;;13.09;100.00
44675;BME280;30388;52.038;-1.478;2023-02-18T11:44:02;66052.01;;;12.53;100.00
44675;BME280;30388;52.038;-1.478;2023-02-18T11:46:31;66009.13;;;12.48;100.00
44675;BME280;30388;52.038;-1.478;2023-02-18T11:49:21;66100.74;;;13.15;100.00
44675;BME280;30388;52.038;-1.478;2023-02-18T11:51:52;66052.12;;;13.02;100.00
44675;BME280;30388;52.038;-1.478;2023-02-18T11:54:24;65956.79;;;11.81;100.00
44675;BME280;30388;52.038;-1.478;2023-02-18T11:56:56;65938.69;;;11.81;100.00
44675;BME280;30388;52.038;-1.478;2023-02-18T11:59:24;65991.06;;;12.47;100.00
44675;BME280;30388;52.038;-1.478;2023-02-18T12:01:56;66050.31;;;13.00;100.00
44675;BME280;30388;52.038;-1.478;2023-02-18T12:04:28;66062.43;;;13.16;100.00
44675;BME280;30388;52.038;-1.478;2023-02-18T12:07:13;66009.49;;;12.49;100.00
44675;BME280;30388;52.038;-1.478;2023-02-18T12:09:48;66065.27;;;13.19;100.00
44675;BME280;30388;52.038;-1.478;2023-02-18T12:12:18;66093.99;;;13.32;100.00
44675;BME280;30388;52.038;-1.478;2023-02-18T12:14:46;66038.59;;;12.84;100.00
44675;BME280;30388;52.038;-1.478;2023-02-18T12:17:30;66117.28;;;13.35;100.00
44675;BME280;30388;52.038;-1.478;2023-02-18T12:20:20;66023.20;;;12.66;100.00
44675;BME280;30388;52.038;-1.478;2023-02-18T12:22:56;66036.53;;;12.83;100.00
44675;BME280;30388;52.038;-1.478;2023-02-18T12:25:37;66073.99;;;13.08;100.00
44675;BME280;30388;52.038;-1.478;2023-02-18T12:28:22;66176.51;;;14.11;100.00
44675;BME280;30388;52.038;-1.478;2023-02-18T12:31:11;66225.76;;;14.51;100.00
44675;BME280;30388;52.038;-1.478;2023-02-18T12:33:54;66270.17;;;14.84;100.00
44675;BME280;30388;52.038;-1.478;2023-02-18T12:36:34;66256.75;;;14.66;100.00
44675;BME280;30388;52.038;-1.478;2023-02-18T12:39:12;66280.72;;;14.97;100.00
44675;BME280;30388;52.038;-1.478;2023-02-18T12:41:52;66263.46;;;14.97;100.00
44675;BME280;30388;52.038;-1.478;2023-02-18T12:44:33;66258.34;;;14.68;100.00
44675;BME280;30388;52.038;-1.478;2023-02-18T12:47:21;66241.04;;;14.47;100.00
44675;BME280;30388;52.038;-1.478;2023-02-18T12:50:11;66230.49;;;14.56;100.00
44675;BME280;30388;52.038;-1.478;2023-02-18T12:52:53;66247.01;;;14.54;100.00
44675;BME280;30388;52.038;-1.478;2023-02-18T12:55:42;66142.06;;;13.67;100.00
44675;BME280;30388;52.038;-1.478;2023-02-18T12:58:24;66219.51;;;14.20;100.00
44675;BME280;30388;52.038;-1.478;2023-02-18T13:01:09;66199.17;;;14.39;100.00
44675;BME280;30388;52.038;-1.478;2023-02-18T13:04:05;66292.85;;;15.12;100.00
44675;BME280;30388;52.038;-1.478;2023-02-18T13:07:09;66287.27;;;15.06;100.00
44675;BME280;30388;52.038;-1.478;2023-02-18T13:09:56;66270.15;;;15.06;100.00